createdAt,value
2019-04-06T00:04:51.113Z,53.40
2019-04-06T00:07:31.942Z,53.50
2019-04-06T00:10:12.695Z,56.40
2019-04-06T00:15:38.511Z,56.63
2019-04-06T00:21:02.853Z,56.83
2019-04-06T00:23:44.164Z,59.23
2019-04-06T00:26:25.149Z,59.80
2019-04-06T00:34:45.674Z,60.90
2019-04-06T00:37:26.282Z,56.77
2019-04-06T00:40:07.259Z,56.80
2019-04-06T00:42:48.356Z,53.00
2019-04-06T00:45:29.179Z,50.60
2019-04-06T00:48:09.889Z,52.57
2019-04-06T00:50:50.272Z,54.30
2019-04-06T00:53:31.013Z,53.30
2019-04-06T00:56:11.608Z,58.60
2019-04-06T00:58:52.511Z,54.27
2019-04-06T01:01:33.552Z,50.60
2019-04-06T01:04:14.184Z,50.50
2019-04-06T01:06:55.300Z,49.30
2019-04-06T01:09:36.090Z,54.17
2019-04-06T01:12:16.897Z,53.07
2019-04-06T01:14:57.995Z,52.07
2019-04-06T01:17:39.015Z,55.43
2019-04-06T01:20:19.651Z,56.97
2019-04-06T01:23:00.650Z,58.60
2019-04-06T01:25:41.197Z,52.90
2019-04-06T01:28:21.837Z,58.53
2019-04-06T01:31:02.567Z,55.90
2019-04-06T01:33:43.059Z,57.07
2019-04-06T01:36:23.892Z,53.17
2019-04-06T01:39:05.534Z,58.27
2019-04-06T01:41:46.790Z,60.40
2019-04-06T01:47:10.391Z,62.67
2019-04-06T01:52:34.099Z,61.17
2019-04-06T01:55:15.156Z,60.27
2019-04-06T01:57:55.847Z,56.97
2019-04-06T02:00:36.500Z,60.40
2019-04-06T02:03:17.764Z,55.40
2019-04-06T02:05:58.557Z,58.27
2019-04-06T02:08:39.821Z,59.30
2019-04-06T02:11:20.372Z,57.50
2019-04-06T02:14:01.018Z,59.73
2019-04-06T02:16:41.373Z,58.70
2019-04-06T02:19:22.453Z,59.10
2019-04-06T02:22:02.997Z,60.70
2019-04-06T02:24:43.590Z,56.57
2019-04-06T02:27:24.963Z,59.80
2019-04-06T02:30:27.956Z,59.17
2019-04-06T02:36:22.359Z,58.57
2019-04-06T02:39:11.193Z,57.40
2019-04-06T02:42:05.395Z,57.50
2019-04-06T02:47:29.018Z,57.53
2019-04-06T02:50:10.263Z,56.80
2019-04-06T02:52:51.574Z,60.90
2019-04-06T02:55:32.211Z,59.83
2019-04-06T02:58:12.939Z,58.10
2019-04-06T03:00:53.606Z,59.20
2019-04-06T03:06:17.289Z,60.23
2019-04-06T03:08:58.202Z,55.73
2019-04-06T03:11:39.010Z,58.67
2019-04-06T03:14:20.113Z,57.70
2019-04-06T03:17:00.852Z,57.93
2019-04-06T03:19:41.610Z,58.37
2019-04-06T03:22:22.663Z,52.37
2019-04-06T03:25:03.509Z,54.77
2019-04-06T03:27:44.354Z,53.60
2019-04-06T03:30:25.252Z,53.47
2019-04-06T03:33:05.987Z,54.57
2019-04-06T03:35:49.359Z,53.53
2019-04-06T03:38:29.412Z,55.87
2019-04-06T03:41:10.373Z,52.17
2019-04-06T03:43:50.808Z,52.17
2019-04-06T03:46:31.721Z,48.93
2019-04-06T03:49:12.928Z,52.53
2019-04-06T03:51:53.393Z,46.10
2019-04-06T03:54:34.969Z,44.77
2019-04-06T03:57:17.117Z,46.17
2019-04-06T03:59:57.918Z,48.53
2019-04-06T04:02:38.877Z,49.20
2019-04-06T04:05:19.148Z,44.03
2019-04-06T04:07:59.923Z,46.20
2019-04-06T04:10:40.481Z,44.70
2019-04-06T04:13:21.229Z,43.10
2019-04-06T04:16:02.438Z,42.10
2019-04-06T04:18:43.435Z,47.40
2019-04-06T04:21:23.896Z,44.60
2019-04-06T04:24:04.756Z,47.23
2019-04-06T04:26:45.746Z,44.57
2019-04-06T04:29:26.446Z,46.63
2019-04-06T04:32:07.257Z,48.07
2019-04-06T04:34:48.779Z,44.43
2019-04-06T04:37:29.161Z,41.37
2019-04-06T04:40:10.083Z,38.80
2019-04-06T04:42:50.779Z,40.90
2019-04-06T04:48:14.715Z,40.40
2019-04-06T04:50:55.150Z,39.03
2019-04-06T04:53:36.027Z,36.67
2019-04-06T04:56:16.527Z,39.03
2019-04-06T04:58:57.513Z,36.30
2019-04-06T05:01:38.421Z,39.77
2019-04-06T05:04:19.627Z,36.90
2019-04-06T05:07:00.780Z,39.90
2019-04-06T05:09:41.444Z,40.30
2019-04-06T05:12:22.379Z,41.40
2019-04-06T05:15:04.031Z,42.40
2019-04-06T05:17:45.486Z,42.73
2019-04-06T05:20:26.890Z,43.23
2019-04-06T05:23:07.326Z,47.70
2019-04-06T05:25:48.591Z,50.80
2019-04-06T05:28:29.034Z,51.47
2019-04-06T05:31:09.539Z,50.37
2019-04-06T05:33:50.365Z,55.17
2019-04-06T05:36:31.642Z,48.00
2019-04-06T05:39:13.030Z,49.60
2019-04-06T05:41:53.973Z,48.20
2019-04-06T05:44:34.751Z,45.37
2019-04-06T05:47:15.767Z,46.80
2019-04-06T05:49:57.052Z,44.73
2019-04-06T05:55:20.549Z,45.50
2019-04-06T05:58:04.447Z,44.43
2019-04-06T06:00:43.970Z,44.80
2019-04-06T06:03:25.008Z,49.17
2019-04-06T06:06:05.285Z,45.33
2019-04-06T06:08:45.890Z,44.90
2019-04-06T06:11:26.673Z,46.40
2019-04-06T06:14:07.358Z,42.50
2019-04-06T06:19:32.115Z,47.70
2019-04-06T06:22:13.030Z,47.97
2019-04-06T06:24:53.930Z,47.63
2019-04-06T06:27:35.252Z,45.53
2019-04-06T06:30:16.090Z,45.63
2019-04-06T06:32:57.747Z,51.50
2019-04-06T06:35:38.151Z,51.90
2019-04-06T06:38:19.044Z,47.07
2019-04-06T06:41:00.170Z,48.40
2019-04-06T06:43:41.434Z,49.70
2019-04-06T06:46:22.363Z,50.70
2019-04-06T06:49:02.931Z,49.47
2019-04-06T06:51:44.352Z,50.60
2019-04-06T06:54:25.259Z,50.20
2019-04-06T06:57:06.565Z,51.53
2019-04-06T06:59:47.090Z,51.83
2019-04-06T07:05:11.066Z,51.90
2019-04-06T07:07:51.912Z,53.07
2019-04-06T07:10:32.195Z,54.70
2019-04-06T07:15:56.587Z,54.73
2019-04-06T07:18:37.798Z,54.87
2019-04-06T07:21:18.769Z,54.30
2019-04-06T07:23:59.388Z,53.30
2019-04-06T07:26:41.352Z,52.37
2019-04-06T07:29:22.993Z,55.03
2019-04-06T07:32:03.725Z,56.43
2019-04-06T07:34:44.969Z,52.23
2019-04-06T07:40:10.783Z,52.60
2019-04-06T07:45:36.428Z,52.37
2019-04-06T07:48:17.059Z,51.40
2019-04-06T07:50:57.629Z,52.90
2019-04-06T07:53:38.417Z,48.90
2019-04-06T07:56:20.660Z,56.70
2019-04-06T07:59:01.903Z,51.17
2019-04-06T08:01:42.987Z,49.93
2019-04-06T08:04:23.337Z,47.57
2019-04-06T08:07:04.327Z,51.50
2019-04-06T08:09:44.930Z,47.83
2019-04-06T08:12:25.699Z,48.17
2019-04-06T08:15:06.687Z,48.47
2019-04-06T08:17:47.233Z,47.20
2019-04-06T08:20:28.638Z,48.60
2019-04-06T08:23:09.831Z,47.20
2019-04-06T08:25:51.396Z,50.47
2019-04-06T08:28:32.345Z,47.90
2019-04-06T08:31:13.041Z,49.37
2019-04-06T08:33:54.073Z,46.07
2019-04-06T08:36:34.835Z,44.90
2019-04-06T08:41:57.908Z,45.40
2019-04-06T08:44:39.187Z,47.00
2019-04-06T08:47:19.930Z,46.27
2019-04-06T08:50:00.621Z,48.33
2019-04-06T08:55:25.750Z,45.40
2019-04-06T08:58:06.851Z,47.53
2019-04-06T09:00:48.039Z,43.47
2019-04-06T09:03:29.413Z,46.17
2019-04-06T09:06:10.095Z,47.10
2019-04-06T09:08:51.113Z,44.40
2019-04-06T09:11:32.003Z,45.10
2019-04-06T09:14:12.887Z,46.57
2019-04-06T09:16:53.487Z,46.47
2019-04-06T09:19:34.095Z,46.67
2019-04-06T09:22:15.133Z,47.70
2019-04-06T09:24:56.293Z,47.00
2019-04-06T09:27:37.098Z,46.57
2019-04-06T09:30:17.659Z,45.77
2019-04-06T09:32:58.482Z,43.37
2019-04-06T09:35:38.976Z,48.80
2019-04-06T09:38:19.740Z,45.53
2019-04-06T09:41:01.110Z,46.90
2019-04-06T09:43:42.117Z,45.83
2019-04-06T09:49:48.318Z,44.50
2019-04-06T09:52:39.058Z,40.67
2019-04-06T09:55:31.786Z,46.80
2019-04-06T10:01:49.452Z,45.80
2019-04-06T10:04:55.357Z,45.50
2019-04-06T10:07:56.752Z,47.73
2019-04-06T10:11:02.489Z,45.87
2019-04-06T10:16:50.510Z,47.07
2019-04-06T10:22:34.254Z,46.20
2019-04-06T10:25:33.988Z,45.63
2019-04-06T10:28:25.905Z,46.33
2019-04-06T10:31:06.783Z,44.67
2019-04-06T10:33:54.590Z,47.77
2019-04-06T10:36:35.215Z,43.07
2019-04-06T10:42:11.382Z,47.70
2019-04-06T10:45:05.343Z,44.90
2019-04-06T10:47:58.200Z,47.30
2019-04-06T10:54:03.063Z,45.30
2019-04-06T10:57:09.127Z,46.20
2019-04-06T11:03:14.515Z,47.23
2019-04-06T11:09:07.907Z,44.30
2019-04-06T11:12:11.195Z,48.30
2019-04-06T11:15:01.121Z,47.40
2019-04-06T11:17:43.375Z,45.43
2019-04-06T11:23:28.134Z,45.50
2019-04-06T11:29:37.818Z,45.50
2019-04-06T11:32:41.315Z,47.43
2019-04-06T11:35:40.534Z,45.90
2019-04-06T11:38:21.571Z,43.73
2019-04-06T11:43:53.897Z,43.73
2019-04-06T11:46:46.142Z,38.37
2019-04-06T11:49:38.673Z,42.80
2019-04-06T11:52:39.383Z,40.87
2019-04-06T11:55:29.296Z,37.10
2019-04-06T11:58:22.377Z,37.13
2019-04-06T12:01:13.467Z,35.80
2019-04-06T12:04:14.408Z,28.07
2019-04-06T12:07:20.408Z,23.00
2019-04-06T12:10:10.698Z,22.03
2019-04-06T12:13:10.272Z,19.53
2019-04-06T12:16:10.618Z,19.73
2019-04-06T12:19:10.299Z,21.07
2019-04-06T12:22:01.531Z,18.00
2019-04-06T12:25:01.658Z,16.50
2019-04-06T12:27:50.847Z,14.20
2019-04-06T12:30:52.028Z,15.53
2019-04-06T12:33:52.377Z,14.73
2019-04-06T12:39:34.935Z,13.10
2019-04-06T12:45:17.565Z,14.63
2019-04-06T12:48:18.343Z,13.13
2019-04-06T12:51:24.155Z,13.27
2019-04-06T12:54:25.216Z,13.00
2019-04-06T13:00:27.851Z,14.17
2019-04-06T13:03:08.451Z,13.93
2019-04-06T13:06:07.918Z,12.83
2019-04-06T13:09:08.296Z,14.10
2019-04-06T13:12:09.002Z,13.27
2019-04-06T13:18:20.556Z,12.57
2019-04-06T13:21:08.385Z,13.20
2019-04-06T13:24:08.195Z,11.90
2019-04-06T13:29:59.799Z,13.63
2019-04-06T13:32:57.260Z,12.43
2019-04-06T13:35:56.951Z,11.70
2019-04-06T13:38:56.947Z,11.07
2019-04-06T13:45:10.284Z,10.93
2019-04-06T13:51:04.429Z,10.10
2019-04-06T13:54:12.339Z,9.87
2019-04-06T13:57:13.242Z,9.17
2019-04-06T14:00:16.463Z,10.80
2019-04-06T14:06:22.570Z,9.13
2019-04-06T14:09:13.606Z,9.60
2019-04-06T14:12:03.474Z,9.27
2019-04-06T14:15:03.769Z,9.33
2019-04-06T14:18:04.049Z,8.90
2019-04-06T14:21:03.952Z,11.03
2019-04-06T14:23:57.390Z,12.63
2019-04-06T14:29:46.166Z,13.80
2019-04-06T14:32:46.312Z,15.00
2019-04-06T14:35:43.502Z,14.00
2019-04-06T14:38:43.934Z,13.83
2019-04-06T14:41:24.557Z,13.50
2019-04-06T14:44:24.709Z,15.33
2019-04-06T14:47:20.580Z,16.13
2019-04-06T14:50:25.259Z,15.10
2019-04-06T14:56:13.803Z,15.93
2019-04-06T14:59:17.004Z,16.63
2019-04-06T15:02:24.782Z,16.20
2019-04-06T15:05:19.862Z,14.00
2019-04-06T15:08:20.140Z,14.53
2019-04-06T15:11:02.031Z,13.63
2019-04-06T15:14:01.311Z,15.10
2019-04-06T15:16:55.399Z,15.47
2019-04-06T15:19:51.589Z,15.03
2019-04-06T15:22:52.960Z,14.10
2019-04-06T15:25:48.794Z,13.50
2019-04-06T15:28:49.155Z,15.90
2019-04-06T15:31:29.908Z,16.00
2019-04-06T15:34:17.274Z,16.10
2019-04-06T15:37:07.350Z,17.40
2019-04-06T15:40:07.652Z,18.30
2019-04-06T15:43:05.820Z,18.20
2019-04-06T15:46:02.783Z,17.47
2019-04-06T15:49:04.713Z,19.00
2019-04-06T15:52:14.389Z,18.33
2019-04-06T15:55:15.789Z,18.20
2019-04-06T15:58:16.203Z,19.07
2019-04-06T16:01:17.651Z,19.47
2019-04-06T16:07:32.540Z,20.80
2019-04-06T16:10:27.638Z,20.10
2019-04-06T16:16:39.179Z,21.40
2019-04-06T16:19:41.853Z,18.70
2019-04-06T16:22:32.822Z,20.07
2019-04-06T16:25:36.255Z,19.97
2019-04-06T16:28:36.383Z,20.90
2019-04-06T16:31:26.128Z,21.53
2019-04-06T16:34:27.860Z,20.43
2019-04-06T16:37:31.116Z,21.50
2019-04-06T16:40:18.781Z,21.30
2019-04-06T16:43:06.942Z,23.70
2019-04-06T16:46:09.909Z,21.07
2019-04-06T16:55:15.465Z,22.93
2019-04-06T16:58:07.950Z,23.00
2019-04-06T17:00:55.612Z,25.33
2019-04-06T17:07:01.225Z,23.70
2019-04-06T17:10:02.109Z,21.70
2019-04-06T17:18:58.276Z,24.17
2019-04-06T17:22:00.573Z,28.50
2019-04-06T17:24:57.253Z,26.40
2019-04-06T17:27:57.493Z,26.13
2019-04-06T17:30:57.485Z,24.50
2019-04-06T17:33:57.450Z,24.77
2019-04-06T17:36:57.911Z,24.40
2019-04-06T17:39:58.243Z,22.97
2019-04-06T17:42:58.197Z,23.27
2019-04-06T17:45:52.366Z,23.63
2019-04-06T17:48:53.566Z,23.07
2019-04-06T17:51:39.205Z,22.00
2019-04-06T17:54:33.707Z,23.53
2019-04-06T17:57:24.640Z,23.00
2019-04-06T18:00:24.606Z,23.77
2019-04-06T18:03:16.981Z,20.87
2019-04-06T18:06:20.085Z,23.20
2019-04-06T18:12:25.292Z,23.33
2019-04-06T18:15:06.639Z,24.20
2019-04-06T18:17:47.340Z,24.97
2019-04-06T18:20:28.771Z,26.30
2019-04-06T18:23:09.936Z,25.77
2019-04-06T18:25:50.804Z,24.83
2019-04-06T18:28:31.946Z,26.47
2019-04-06T18:34:22.826Z,23.53
2019-04-06T18:37:25.776Z,27.33
2019-04-06T18:40:09.289Z,26.37
2019-04-06T18:42:49.815Z,24.57
2019-04-06T18:45:32.671Z,26.00
2019-04-06T18:48:13.446Z,24.33
2019-04-06T18:50:53.930Z,26.57
2019-04-06T18:53:34.607Z,26.67
2019-04-06T18:56:16.301Z,25.97
2019-04-06T18:58:57.161Z,25.20
2019-04-06T19:01:38.358Z,25.30
2019-04-06T19:04:18.766Z,28.70
2019-04-06T19:06:59.394Z,26.90
2019-04-06T19:09:40.666Z,27.20
2019-04-06T19:12:21.389Z,28.27
2019-04-06T19:15:02.360Z,26.40
2019-04-06T19:17:43.103Z,26.77
2019-04-06T19:20:23.739Z,29.80
2019-04-06T19:23:04.579Z,27.03
2019-04-06T19:28:33.406Z,27.90
2019-04-06T19:31:15.041Z,27.47
2019-04-06T19:33:55.602Z,27.63
2019-04-06T19:36:36.812Z,28.23
2019-04-06T19:39:18.067Z,25.10
2019-04-06T19:41:58.429Z,27.40
2019-04-06T19:44:38.991Z,27.57
2019-04-06T19:47:19.436Z,27.57
2019-04-06T19:50:02.826Z,27.20
2019-04-06T19:52:44.170Z,25.40
2019-04-06T19:55:24.632Z,26.77
2019-04-06T19:58:05.918Z,25.63
2019-04-06T20:00:46.871Z,25.10
2019-04-06T20:03:34.631Z,25.07
2019-04-06T20:06:10.898Z,25.23
2019-04-06T20:08:51.789Z,25.13
2019-04-06T20:11:33.096Z,24.63
2019-04-06T20:14:13.426Z,26.30
2019-04-06T20:19:37.506Z,26.30
2019-04-06T20:22:18.441Z,26.87
2019-04-06T20:25:00.120Z,26.80
2019-04-06T20:27:40.972Z,28.10
2019-04-06T20:30:21.780Z,27.40
2019-04-06T20:33:02.681Z,27.10
2019-04-06T20:35:43.084Z,28.03
2019-04-06T20:38:24.641Z,27.33
2019-04-06T20:43:48.653Z,27.23
2019-04-06T20:46:29.800Z,26.37
2019-04-06T20:49:11.130Z,26.60
2019-04-06T20:51:52.266Z,27.20
2019-04-06T20:54:33.970Z,29.03
2019-04-06T20:57:14.430Z,29.60
2019-04-06T20:59:55.222Z,26.30
2019-04-06T21:02:36.041Z,27.80
2019-04-06T21:05:16.905Z,28.10
2019-04-06T21:07:58.058Z,27.90
2019-04-06T21:10:38.800Z,27.87
2019-04-06T21:13:20.106Z,28.90
2019-04-06T21:16:00.971Z,28.27
2019-04-06T21:18:42.294Z,26.57
2019-04-06T21:21:22.951Z,29.20
2019-04-06T21:24:03.923Z,29.87
2019-04-06T21:26:44.823Z,27.77
2019-04-06T21:29:25.618Z,29.87
2019-04-06T21:34:49.637Z,31.73
2019-04-06T21:37:30.248Z,33.47
2019-04-06T21:40:11.543Z,29.60
2019-04-06T21:42:52.332Z,29.63
2019-04-06T21:45:32.858Z,30.33
2019-04-06T21:48:13.603Z,30.03
2019-04-06T21:50:54.150Z,30.40
2019-04-06T21:53:34.621Z,30.20
2019-04-06T21:56:15.676Z,29.97
2019-04-06T21:58:57.311Z,29.40
2019-04-06T22:01:37.751Z,28.13
2019-04-06T22:04:25.262Z,28.90
2019-04-06T22:07:00.994Z,27.83
2019-04-06T22:09:42.414Z,28.70
2019-04-06T22:12:22.884Z,27.27
2019-04-06T22:15:04.104Z,27.50
2019-04-06T22:20:28.138Z,28.00
2019-04-06T22:23:09.264Z,30.30
2019-04-06T22:25:50.509Z,32.77
2019-04-06T22:28:32.146Z,32.90
2019-04-06T22:31:13.287Z,30.37
2019-04-06T22:33:54.657Z,30.57
2019-04-06T22:36:35.541Z,31.00
2019-04-06T22:39:16.740Z,32.60
2019-04-06T22:41:57.155Z,31.30
2019-04-06T22:44:38.249Z,31.50
2019-04-06T22:47:19.811Z,31.90
2019-04-06T22:50:00.771Z,30.37
2019-04-06T22:52:42.373Z,28.30
2019-04-06T22:55:23.187Z,27.40
2019-04-06T22:58:03.916Z,27.97
2019-04-06T23:00:50.263Z,29.13
2019-04-06T23:06:39.085Z,27.93
2019-04-06T23:09:20.235Z,30.37
2019-04-06T23:12:00.762Z,33.60
2019-04-06T23:14:42.058Z,28.63
2019-04-06T23:17:23.078Z,28.20
2019-04-06T23:20:04.648Z,30.00
2019-04-06T23:22:45.527Z,29.20
2019-04-06T23:25:27.909Z,28.73
2019-04-06T23:28:09.345Z,30.90
2019-04-06T23:30:50.226Z,32.17
2019-04-06T23:33:31.422Z,31.83
2019-04-06T23:36:12.286Z,31.83
2019-04-06T23:38:52.935Z,29.27
2019-04-06T23:41:33.800Z,26.70
2019-04-06T23:44:14.646Z,27.20
2019-04-06T23:46:55.577Z,32.13
2019-04-06T23:49:36.208Z,28.90
2019-04-06T23:52:17.210Z,30.73
2019-04-06T23:54:57.827Z,27.47
2019-04-06T23:57:38.737Z,27.00
